DeLand, FL (32720)

3:49 AM EST on February 23, 2017 (GMT -0500)
Glenwood Hammock | | Change Station

Elev 111 ft 29.06 °N, 81.36 °W | Updated 14 minutes ago

Overcast
Overcast
66.1 °F
Feels Like 66.1 °F
N
0.0
Wind Variable Wind from East
Gusts 6.0 mph

Today
High -- | Low -- °F
--% Chance of Precip.
Yesterday
High -- | Low -- °F
Precip. -- in
Pressure 29.59 in
Visibility 10.0 miles
Clouds Mostly Cloudy 1700 ft
Mostly Cloudy 2100 ft
Overcast 3800 ft
Dew Point Not available.
Humidity Not available.
Rainfall 0.02 in
Snow Depth Not available.
6:56 AM 6:21 PM
Waning Crescent, 12% visible
METAR KDED 230835Z AUTO 09014G20KT 10SM BKN017 BKN021 OVC038 20/18 A2959 RMK AO2
Pressure 29.59 in
Visibility 10.0 miles
Clouds Mostly Cloudy 1700 ft
Mostly Cloudy 2100 ft
Overcast 3800 ft
Dew Point Not available.
Humidity Not available.
Rainfall 0.02 in
Snow Depth Not available.
6:56 AM 6:21 PM
Waning Crescent, 12% visible
METAR KDED 230835Z AUTO 09014G20KT 10SM BKN017 BKN021 OVC038 20/18 A2959 RMK AO2

Get Your Daily Forecast Email!

Thanks for signing up!

Be on the lookout for a verification email in your inbox.

You'll start receiving the daily forecast at 8 AM.

×

10-Day Weather Forecast

Almanac

Astronomy

Feb. 23, 2017 Rise Set
Actual Time
Civil Twilight
Nautical Twilight
Astronomical Twilight
Moon
Length of Visible Light
Length of Day
Tomorrow will be .
, % of the Moon is Illuminated

Today's Extremes

State Highs State Lows

Community

WunderPhotos

Upload Photos

1,962,540 photos uploaded!

WunderBlog® & News

Nearby

Air Quality

  Air Quality AQ Index Pollutant
Not available.

Snow Depth

Station Depth Elevation

Earthquake Activity

City Distance Mag. Time & Date
Minimum magnitude displayed is 2.5.

Coastal Water Temperatures

Place Temperature

Stations

Nearby Weather Stations

Station Location Temp. Windchill Dew Point Humidity Wind Precip. Elev Updated Type
                   

Watches & Warnings

There are currently no watches in effect.